• Join FlightAware (Why Join?)
  • Login
  • US Flag 
02:18AM EDT


 

Airport Tracker/Info


-or-


 

Live Flight TrackerFlight Track Log ✈ CTL309 ✈ 23-Sep-2013 ✈ KHOC - KBLF

Flight Track Log - Related Links

Times and Time Zones

All times are in EDT time to prevent confusion due to time zone crossing. See the CTL309 flight status page for this flight to view local times or setup timezone preferences in your user account.

Time Position Orientation Groundspeed Altitude Reporting Facility
EDT Latitude Longitude Course Direction KTS MPH feet Rate Location/Type
09:08PM 39.1317 -83.4992 138° Southeast 107 123 3,600  Level Indianapolis Center
09:10PM 39.1067 -83.4678 136° Southeast 120 138 4,600 1,080 Climbing Indianapolis Center
09:11PM 39.0739 -83.4311 139° Southeast 129 148 5,800 960 Climbing Indianapolis Center
09:12PM 39.0467 -83.4003 139° Southeast 129 148 6,600 780 Climbing Indianapolis Center
09:13PM 39.0217 -83.3661 133° Southeast 132 152 7,400 720 Climbing Indianapolis Center
09:14PM 38.9893 -83.2845 138° Southeast  Level Estimated
09:14PM 38.9958 -83.3308 133° Southeast 134 154 8,100  Level Indianapolis Center
09:15PM 38.9678 -83.2989 138° Southeast 134 154 8,700 420 Climbing Indianapolis Center
09:16PM 38.9389 -83.2647 137° Southeast 139 160 9,000 120 Climbing Indianapolis Center
09:17PM 38.9064 -83.2239 136° Southeast 157 181 9,000  Level Indianapolis Center
09:18PM 38.8717 -83.1808 136° Southeast 169 194 9,000  Level Indianapolis Center
09:19PM 38.8353 -83.1372 137° Southeast 172 198 9,000  Level Indianapolis Center
09:20PM 38.8036 -83.0925 132° Southeast 169 194 9,000  Level Indianapolis Center
09:21PM 38.7694 -83.0500 136° Southeast 171 197 9,000  Level Indianapolis Center
09:22PM 38.7267 -83.0014 138° Southeast 171 197 9,000  Level Indianapolis Center
09:23PM 38.6939 -82.9589 135° Southeast 168 193 9,000  Level Indianapolis Center
09:24PM 38.6597 -82.9153 135° Southeast 172 198 9,000  Level Indianapolis Center
09:25PM 38.6294 -82.8772 136° Southeast 169 194 9,000  Level Indianapolis Center
09:26PM 38.5889 -82.8281 137° Southeast 172 198 9,000  Level Indianapolis Center
09:27PM 38.5556 -82.7847 135° Southeast 172 198 9,000  Level Indianapolis Center
09:28PM 38.5208 -82.7422 136° Southeast 172 198 9,000  Level Indianapolis Center
09:29PM 38.4869 -82.6997 136° Southeast 172 198 9,000  Level Indianapolis Center
09:30PM 38.4528 -82.6581 136° Southeast 169 194 9,000  Level Indianapolis Center
09:31PM 38.4178 -82.6144 136° Southeast 172 198 9,000  Level Indianapolis Center
09:32PM 38.3839 -82.5725 136° Southeast 171 197 9,000  Level Indianapolis Center
09:33PM 38.3489 -82.5317 138° Southeast 169 194 9,000  Level Indianapolis Center
09:34PM 38.3117 -82.4833 134° Southeast 172 198 9,000  Level Indianapolis Center
09:35PM 38.2764 -82.4411 137° Southeast 174 200 9,000  Level Indianapolis Center
09:36PM 38.2411 -82.4003 138° Southeast 172 198 9,000  Level Indianapolis Center
09:37PM 38.2058 -82.3586 137° Southeast 173 199 9,000  Level Indianapolis Center
09:38PM 38.1711 -82.3156 136° Southeast 173 199 9,000  Level Indianapolis Center
09:39PM 38.1353 -82.2753 139° Southeast 173 199 9,000  Level Indianapolis Center
09:40PM 38.0983 -82.2319 137° Southeast 170 196 9,000  Level Indianapolis Center
09:41PM 38.0650 -82.1894 135° Southeast 169 194 9,000  Level Indianapolis Center
09:42PM 38.0325 -82.1500 136° Southeast 175 201 9,000  Level Indianapolis Center
09:43PM 37.9903 -82.0997 137° Southeast 172 198 9,000  Level Indianapolis Center
09:44PM 37.9564 -82.0558 134° Southeast 174 200 9,000  Level Indianapolis Center
09:45PM 37.9222 -82.0136 136° Southeast 173 199 9,000  Level Indianapolis Center
09:46PM 37.8881 -81.9697 135° Southeast 174 200 9,000  Level Indianapolis Center
09:47PM 37.8519 -81.9278 137° Southeast 175 201 9,000  Level Indianapolis Center
09:48PM 37.8156 -81.8825 135° Southeast 173 199 9,100  Climbing Indianapolis Center
09:49PM 37.7811 -81.8378 134° Southeast 175 201 9,100  Level Indianapolis Center
09:50PM 37.7464 -81.7947 136° Southeast 174 200 9,100  Level Indianapolis Center
09:51PM 37.7119 -81.7494 134° Southeast 178 205 9,100  Level Indianapolis Center
09:52PM 37.6772 -81.7069 136° Southeast 176 203 9,100  Level Indianapolis Center
09:53PM 37.6433 -81.6639 135° Southeast 173 199 9,100  Level Indianapolis Center
09:54PM 37.6086 -81.6206 135° Southeast 175 201 9,100  Level Indianapolis Center